createdAt,value
2022-08-03T00:01:00.324Z,56.5
2022-08-03T00:02:06.443Z,56.5
2022-08-03T00:03:12.561Z,56.5
2022-08-03T00:04:18.654Z,56.5
2022-08-03T00:05:24.782Z,56.5
2022-08-03T00:06:30.888Z,56.5
2022-08-03T00:07:36.025Z,56.5
2022-08-03T00:08:41.153Z,56.5
2022-08-03T00:09:46.302Z,56.5
2022-08-03T00:10:51.427Z,56.5
2022-08-03T00:11:57.536Z,56.5
2022-08-03T00:13:03.646Z,56.5
2022-08-03T00:14:09.768Z,56.5
2022-08-03T00:15:15.877Z,56.5
2022-08-03T00:16:21.994Z,56.5
2022-08-03T00:17:28.105Z,56.5
2022-08-03T00:18:34.216Z,56.5
2022-08-03T00:19:40.341Z,56.5
2022-08-03T00:20:46.448Z,56.5
2022-08-03T00:21:52.555Z,56.5
2022-08-03T00:22:58.676Z,56.5
2022-08-03T00:24:04.789Z,56.5
2022-08-03T00:25:09.911Z,56.5
2022-08-03T00:26:16.029Z,56.5
2022-08-03T00:27:22.149Z,56.5
2022-08-03T00:28:28.252Z,56.5
2022-08-03T00:29:34.380Z,56.5
2022-08-03T00:30:40.493Z,56.5
2022-08-03T00:31:46.598Z,56.5
2022-08-03T00:32:51.734Z,56.5
2022-08-03T00:33:56.864Z,56.5
2022-08-03T00:35:01.996Z,56.5
2022-08-03T00:36:07.135Z,56.5
2022-08-03T00:37:13.245Z,56.5
2022-08-03T00:38:19.361Z,56.5
2022-08-03T00:39:25.478Z,56.5
2022-08-03T00:40:31.588Z,56.5
2022-08-03T00:41:37.701Z,56.5
2022-08-03T00:42:43.817Z,56.5
2022-08-03T00:43:49.930Z,56.5
2022-08-03T00:44:56.047Z,56.5
2022-08-03T00:46:02.154Z,56.5
2022-08-03T00:47:08.273Z,56.5
2022-08-03T00:48:14.386Z,56.5
2022-08-03T00:49:20.498Z,56.5
2022-08-03T00:50:25.624Z,56.5
2022-08-03T00:51:31.744Z,56.5
2022-08-03T00:52:37.856Z,56.5
2022-08-03T00:53:43.968Z,56.5
2022-08-03T00:54:50.097Z,56.5
2022-08-03T00:55:56.195Z,56.5
2022-08-03T00:57:02.308Z,56.5
2022-08-03T00:58:07.447Z,56.5
2022-08-03T00:59:12.576Z,56.5
2022-08-03T01:00:17.707Z,56.5
2022-08-03T01:01:22.844Z,56.5
2022-08-03T01:02:28.961Z,56.5
2022-08-03T01:03:35.073Z,56.5
2022-08-03T01:04:41.184Z,56.5
2022-08-03T01:05:47.304Z,56.5
2022-08-03T01:06:53.407Z,56.5
2022-08-03T01:07:59.523Z,56.5
2022-08-03T01:09:05.641Z,56.5
2022-08-03T01:10:11.747Z,56.5
2022-08-03T01:11:17.870Z,56.5
2022-08-03T01:12:23.983Z,56.5
2022-08-03T01:13:30.095Z,56.5
2022-08-03T01:14:36.207Z,56.5
2022-08-03T01:15:41.338Z,56.5
2022-08-03T01:16:47.457Z,56.5
2022-08-03T01:17:53.569Z,56.5
2022-08-03T01:18:59.680Z,56.5
2022-08-03T01:20:05.789Z,56.5
2022-08-03T01:21:11.898Z,56.5
2022-08-03T01:22:18.018Z,56.5
2022-08-03T01:23:23.166Z,56.5
2022-08-03T01:24:28.286Z,56.5
2022-08-03T01:25:34.395Z,56.5
2022-08-03T01:26:40.517Z,56.5
2022-08-03T01:27:46.622Z,56.5
2022-08-03T01:28:52.742Z,56.5
2022-08-03T01:29:58.856Z,56.5
2022-08-03T01:31:04.967Z,56.5
2022-08-03T01:32:11.079Z,56.5
2022-08-03T01:33:17.189Z,56.5
2022-08-03T01:34:23.301Z,56.5
2022-08-03T01:35:29.416Z,56.5
2022-08-03T01:36:35.530Z,56.5
2022-08-03T01:37:41.646Z,56.5
2022-08-03T01:38:46.778Z,56.5
2022-08-03T01:39:52.894Z,56.5
2022-08-03T01:40:59.003Z,56.5
2022-08-03T01:42:05.137Z,56.5
2022-08-03T01:43:11.231Z,56.5
2022-08-03T01:44:17.345Z,56.5
2022-08-03T01:45:23.466Z,56.5
2022-08-03T01:46:28.592Z,56.5
2022-08-03T01:47:33.721Z,56.5
2022-08-03T01:48:38.860Z,56.5
2022-08-03T01:49:43.989Z,56.5
2022-08-03T01:50:50.102Z,56.5
2022-08-03T01:51:55.243Z,56.5
2022-08-03T01:53:00.366Z,56.5
2022-08-03T01:54:06.477Z,56.5
2022-08-03T01:55:12.593Z,56.5
2022-08-03T01:56:18.710Z,56.5
2022-08-03T01:57:24.825Z,56.5
2022-08-03T01:58:30.937Z,56.5
2022-08-03T01:59:37.046Z,56.5
2022-08-03T02:00:43.159Z,56.5
2022-08-03T02:01:49.321Z,56.5
2022-08-03T02:02:55.398Z,56.5
2022-08-03T02:04:01.510Z,56.5
2022-08-03T02:05:07.619Z,56.5
2022-08-03T02:06:13.735Z,56.5
2022-08-03T02:07:18.869Z,56.5
2022-08-03T02:08:24.969Z,56.5
2022-08-03T02:09:31.099Z,56.5
2022-08-03T02:10:37.213Z,56.5
2022-08-03T02:11:43.345Z,56.5
2022-08-03T02:12:49.437Z,56.5
2022-08-03T02:13:55.560Z,56.5
2022-08-03T02:15:00.681Z,56.5
2022-08-03T02:16:05.811Z,56.5
2022-08-03T02:17:10.950Z,56.5
2022-08-03T02:18:16.077Z,56.5
2022-08-03T02:19:22.188Z,56.5
2022-08-03T02:20:28.311Z,56.5
2022-08-03T02:21:34.418Z,56.5
2022-08-03T02:22:40.527Z,56.5
2022-08-03T02:23:46.651Z,56.5
2022-08-03T02:24:52.765Z,56.5
2022-08-03T02:25:58.876Z,56.5
2022-08-03T02:27:04.990Z,56.5
2022-08-03T02:28:11.113Z,56.5
2022-08-03T02:29:17.232Z,56.5
2022-08-03T02:30:23.331Z,56.5
2022-08-03T02:31:29.439Z,56.5
2022-08-03T02:32:34.575Z,56.5
2022-08-03T02:33:40.688Z,56.5
2022-08-03T02:34:46.800Z,56.5
2022-08-03T02:35:52.912Z,56.5
2022-08-03T02:36:59.056Z,56.5
2022-08-03T02:38:05.140Z,56.5
2022-08-03T02:39:11.252Z,56.5
2022-08-03T02:40:16.390Z,56.5
2022-08-03T02:41:21.523Z,56.5
2022-08-03T02:42:27.637Z,56.5
2022-08-03T02:43:33.757Z,56
2022-08-03T02:44:39.860Z,56.5
2022-08-03T02:45:45.977Z,56.5
2022-08-03T02:46:52.090Z,56.5
2022-08-03T02:47:58.202Z,56
2022-08-03T02:49:04.317Z,56.5
2022-08-03T02:50:10.433Z,56
2022-08-03T02:51:16.558Z,56
2022-08-03T02:52:22.659Z,56.5
2022-08-03T02:53:28.777Z,56
2022-08-03T02:54:34.889Z,56
2022-08-03T02:55:40.015Z,56
2022-08-03T02:56:46.133Z,56
2022-08-03T02:57:51.272Z,56
2022-08-03T02:58:57.378Z,56
2022-08-03T03:00:03.489Z,56
2022-08-03T03:01:09.602Z,56
2022-08-03T03:02:15.731Z,56
2022-08-03T03:03:20.873Z,56
2022-08-03T03:04:25.986Z,56
2022-08-03T03:05:31.135Z,56
2022-08-03T03:06:36.265Z,56
2022-08-03T03:07:41.395Z,56
2022-08-03T03:08:46.527Z,56
2022-08-03T03:09:52.633Z,56
2022-08-03T03:10:58.741Z,56
2022-08-03T03:12:04.856Z,56
2022-08-03T03:13:10.969Z,56
2022-08-03T03:14:17.086Z,56
2022-08-03T03:15:23.207Z,56
2022-08-03T03:16:29.314Z,56
2022-08-03T03:17:35.422Z,56
2022-08-03T03:18:41.551Z,56
2022-08-03T03:19:47.651Z,56
2022-08-03T03:20:53.780Z,56
2022-08-03T03:21:59.880Z,56
2022-08-03T03:23:05.013Z,56
2022-08-03T03:24:11.132Z,56
2022-08-03T03:25:17.274Z,56
2022-08-03T03:26:23.354Z,56
2022-08-03T03:27:29.468Z,56
2022-08-03T03:28:35.573Z,56
2022-08-03T03:29:41.705Z,56
2022-08-03T03:30:46.833Z,56
2022-08-03T03:31:51.971Z,56
2022-08-03T03:32:57.098Z,56
2022-08-03T03:34:02.219Z,56
2022-08-03T03:35:08.340Z,56
2022-08-03T03:36:14.484Z,56
2022-08-03T03:37:20.569Z,56
2022-08-03T03:38:26.677Z,56
2022-08-03T03:39:32.800Z,56
2022-08-03T03:40:38.912Z,56
2022-08-03T03:41:45.019Z,56
2022-08-03T03:42:51.138Z,56
2022-08-03T03:43:57.254Z,56
2022-08-03T03:45:03.360Z,56
2022-08-03T03:46:09.490Z,56
2022-08-03T03:47:15.592Z,56
2022-08-03T03:48:20.722Z,56
2022-08-03T03:49:26.839Z,56
2022-08-03T03:50:32.955Z,56
2022-08-03T03:51:39.056Z,56
2022-08-03T03:52:45.173Z,56
2022-08-03T03:53:51.283Z,56
2022-08-03T03:54:57.407Z,56
2022-08-03T03:56:02.541Z,56
2022-08-03T03:57:07.671Z,56
2022-08-03T03:58:13.782Z,56
2022-08-03T03:59:19.898Z,56
2022-08-03T04:00:26.005Z,56
2022-08-03T04:01:32.132Z,56
2022-08-03T04:02:38.230Z,56
2022-08-03T04:03:44.354Z,56
2022-08-03T04:04:50.461Z,56
2022-08-03T04:05:56.570Z,56
2022-08-03T04:07:02.687Z,56
2022-08-03T04:08:08.808Z,56
2022-08-03T04:09:14.916Z,56
2022-08-03T04:10:21.042Z,56
2022-08-03T04:11:26.161Z,56
2022-08-03T04:12:32.285Z,56
2022-08-03T04:13:38.403Z,56
2022-08-03T04:14:44.503Z,56
2022-08-03T04:15:50.619Z,56
2022-08-03T04:16:56.732Z,56
2022-08-03T04:18:02.842Z,56
2022-08-03T04:19:07.986Z,56
2022-08-03T04:20:13.117Z,56
2022-08-03T04:21:18.252Z,56
2022-08-03T04:22:23.386Z,56
2022-08-03T04:23:29.486Z,56
2022-08-03T04:24:35.598Z,56
2022-08-03T04:25:41.714Z,56
2022-08-03T04:26:47.837Z,56
2022-08-03T04:27:53.947Z,56
2022-08-03T04:29:00.064Z,56
2022-08-03T04:30:06.173Z,56
2022-08-03T04:31:12.309Z,56
2022-08-03T04:32:18.396Z,56
2022-08-03T04:33:24.513Z,56
2022-08-03T04:34:30.630Z,56
2022-08-03T04:35:36.736Z,56
2022-08-03T04:36:41.867Z,56
2022-08-03T04:37:47.993Z,56
2022-08-03T04:38:54.101Z,56
2022-08-03T04:40:00.225Z,56
2022-08-03T04:41:06.327Z,56
2022-08-03T04:42:12.443Z,56
2022-08-03T04:43:18.559Z,56
2022-08-03T04:44:23.692Z,56
2022-08-03T04:45:28.820Z,56
2022-08-03T04:46:33.952Z,56
2022-08-03T04:47:39.080Z,56
2022-08-03T04:48:45.198Z,56
2022-08-03T04:49:51.307Z,56
2022-08-03T04:50:57.423Z,56
2022-08-03T04:52:03.537Z,56
2022-08-03T04:53:09.655Z,56
2022-08-03T04:54:15.767Z,56
2022-08-03T04:55:21.888Z,56
2022-08-03T04:56:27.995Z,56
2022-08-03T04:57:34.107Z,56
2022-08-03T04:58:40.218Z,56
2022-08-03T04:59:46.340Z,56
2022-08-03T05:00:52.451Z,56
2022-08-03T05:01:57.585Z,56
2022-08-03T05:03:03.697Z,56
2022-08-03T05:04:09.804Z,56
2022-08-03T05:05:15.914Z,56
2022-08-03T05:06:22.034Z,56
2022-08-03T05:07:28.147Z,56
2022-08-03T05:08:34.258Z,56
2022-08-03T05:09:39.400Z,56
2022-08-03T05:10:44.527Z,56
2022-08-03T05:11:49.664Z,56
2022-08-03T05:12:54.801Z,56
2022-08-03T05:14:00.904Z,56
2022-08-03T05:15:07.029Z,56
2022-08-03T05:16:13.141Z,56
2022-08-03T05:17:19.250Z,56
2022-08-03T05:18:25.369Z,56
2022-08-03T05:19:31.469Z,56
2022-08-03T05:20:37.590Z,56
2022-08-03T05:21:43.704Z,56
2022-08-03T05:22:49.821Z,56
2022-08-03T05:23:55.935Z,56
2022-08-03T05:25:02.042Z,56
2022-08-03T05:26:08.162Z,56
2022-08-03T05:27:13.290Z,56
2022-08-03T05:28:19.394Z,56
2022-08-03T05:29:25.512Z,56
2022-08-03T05:30:31.629Z,56
2022-08-03T05:31:37.737Z,56
2022-08-03T05:32:43.850Z,56
2022-08-03T05:33:49.972Z,56
2022-08-03T05:34:55.115Z,56
2022-08-03T05:36:00.254Z,56
2022-08-03T05:37:05.372Z,56
2022-08-03T05:38:10.500Z,56
2022-08-03T05:39:16.617Z,56
2022-08-03T05:40:22.735Z,56
2022-08-03T05:41:28.839Z,56
2022-08-03T05:42:34.959Z,56
2022-08-03T05:43:41.069Z,56
2022-08-03T05:44:47.178Z,56
2022-08-03T05:45:53.295Z,56
2022-08-03T05:46:59.436Z,56
2022-08-03T05:48:05.518Z,56
2022-08-03T05:49:11.641Z,56
2022-08-03T05:50:17.755Z,56
2022-08-03T05:51:23.873Z,56
2022-08-03T05:52:29.002Z,56
2022-08-03T05:53:35.115Z,56
2022-08-03T05:54:41.231Z,56
2022-08-03T05:55:47.342Z,56
2022-08-03T05:56:53.468Z,56
2022-08-03T05:57:59.568Z,56
2022-08-03T05:59:05.676Z,56
2022-08-03T06:00:10.815Z,56
2022-08-03T06:01:15.952Z,56
2022-08-03T06:02:21.092Z,56
2022-08-03T06:03:26.213Z,56
2022-08-03T06:04:32.328Z,56
2022-08-03T06:05:38.442Z,56
2022-08-03T06:06:44.559Z,56
2022-08-03T06:07:50.673Z,56
2022-08-03T06:08:56.783Z,56
2022-08-03T06:10:02.899Z,56
2022-08-03T06:11:09.007Z,56
2022-08-03T06:12:15.118Z,56
2022-08-03T06:13:21.234Z,56
2022-08-03T06:14:27.354Z,56
2022-08-03T06:15:33.459Z,56
2022-08-03T06:16:39.575Z,56
2022-08-03T06:17:44.710Z,56
2022-08-03T06:18:50.820Z,56
2022-08-03T06:19:56.938Z,56
2022-08-03T06:21:03.074Z,56
2022-08-03T06:22:09.164Z,56
2022-08-03T06:23:15.287Z,56
2022-08-03T06:24:21.386Z,56
2022-08-03T06:25:26.524Z,56
2022-08-03T06:26:31.651Z,56
2022-08-03T06:27:37.762Z,56
2022-08-03T06:28:42.924Z,56
2022-08-03T06:29:48.032Z,56
2022-08-03T06:30:54.157Z,56
2022-08-03T06:32:00.262Z,56
2022-08-03T06:33:06.386Z,56
2022-08-03T06:34:12.483Z,56
2022-08-03T06:35:18.614Z,56
2022-08-03T06:36:24.719Z,56
2022-08-03T06:37:30.830Z,56
2022-08-03T06:38:35.969Z,56
2022-08-03T06:39:42.094Z,56
2022-08-03T06:40:48.196Z,56
2022-08-03T06:41:54.312Z,56
2022-08-03T06:43:00.426Z,56
2022-08-03T06:44:06.530Z,56
2022-08-03T06:45:12.654Z,56
2022-08-03T06:46:18.764Z,56
2022-08-03T06:47:24.889Z,56
2022-08-03T06:48:30.990Z,56
2022-08-03T06:49:37.117Z,56
2022-08-03T06:50:43.217Z,56
2022-08-03T06:51:48.348Z,56
2022-08-03T06:52:53.516Z,56
2022-08-03T06:53:59.602Z,56
2022-08-03T06:55:05.725Z,57
2022-08-03T06:56:11.844Z,58
2022-08-03T06:57:17.938Z,58
2022-08-03T06:58:24.050Z,58.5
2022-08-03T06:59:30.173Z,59
2022-08-03T07:00:36.276Z,58.5
2022-08-03T07:01:42.390Z,60.5
2022-08-03T07:02:48.507Z,60
2022-08-03T07:03:54.619Z,60.5
2022-08-03T07:05:00.811Z,60.5
2022-08-03T07:06:06.848Z,59.5
2022-08-03T07:07:11.974Z,60.5
2022-08-03T07:08:18.099Z,60
2022-08-03T07:09:24.205Z,60
2022-08-03T07:10:30.324Z,60
2022-08-03T07:11:36.434Z,60.5
2022-08-03T07:12:42.577Z,60
2022-08-03T07:13:48.683Z,61
2022-08-03T07:14:53.793Z,61
2022-08-03T07:15:58.929Z,61.5
2022-08-03T07:17:04.064Z,61
2022-08-03T07:18:09.193Z,61.5
2022-08-03T07:19:15.314Z,61
2022-08-03T07:20:21.414Z,61
2022-08-03T07:21:27.534Z,61
2022-08-03T07:22:33.675Z,61
2022-08-03T07:23:39.755Z,61
2022-08-03T07:24:45.873Z,61
2022-08-03T07:25:51.985Z,61.5
2022-08-03T07:26:58.101Z,61
2022-08-03T07:28:04.217Z,62
2022-08-03T07:29:10.334Z,62
2022-08-03T07:30:16.444Z,62
2022-08-03T07:31:22.603Z,62
2022-08-03T07:32:27.702Z,62
2022-08-03T07:33:33.821Z,62
2022-08-03T07:34:39.916Z,62.5
2022-08-03T07:35:46.027Z,62
2022-08-03T07:36:52.148Z,62.5
2022-08-03T07:37:58.260Z,62
2022-08-03T07:39:04.380Z,62
2022-08-03T07:40:09.509Z,62
2022-08-03T07:41:14.732Z,62
2022-08-03T07:42:19.790Z,62.5
2022-08-03T07:43:24.912Z,62.5
2022-08-03T07:44:31.024Z,62
2022-08-03T07:45:37.135Z,62
2022-08-03T07:46:43.248Z,62
2022-08-03T07:47:49.360Z,62
2022-08-03T07:48:55.474Z,62
2022-08-03T07:50:01.592Z,62.5
2022-08-03T07:51:07.699Z,62.5
2022-08-03T07:52:13.817Z,62.5
2022-08-03T07:53:19.925Z,62.5
2022-08-03T07:54:26.039Z,62
2022-08-03T07:55:32.163Z,62
2022-08-03T07:56:38.273Z,62.5
2022-08-03T07:57:43.398Z,62.5
2022-08-03T07:58:49.516Z,62.5
2022-08-03T07:59:55.627Z,62.5
2022-08-03T08:01:01.742Z,62.5
2022-08-03T08:02:07.849Z,63
2022-08-03T08:03:13.984Z,63
2022-08-03T08:04:20.094Z,62.5
2022-08-03T08:05:25.214Z,62.5
2022-08-03T08:06:30.352Z,62.5
2022-08-03T08:07:36.461Z,63
2022-08-03T08:08:42.588Z,63
2022-08-03T08:09:48.690Z,62.5
2022-08-03T08:10:54.801Z,62.5
2022-08-03T08:12:00.916Z,62.5
2022-08-03T08:13:07.028Z,62.5
2022-08-03T08:14:13.145Z,63
2022-08-03T08:15:19.260Z,63
2022-08-03T08:16:25.378Z,62.5
2022-08-03T08:17:31.485Z,62.5
2022-08-03T08:18:37.593Z,62
2022-08-03T08:19:43.738Z,62
2022-08-03T08:20:48.845Z,61.5
2022-08-03T08:21:54.955Z,61.5
2022-08-03T08:23:01.065Z,61
2022-08-03T08:24:07.185Z,61
2022-08-03T08:25:13.295Z,61.5
2022-08-03T08:26:19.435Z,61.5
2022-08-03T08:27:25.540Z,61.5
2022-08-03T08:28:30.657Z,62
2022-08-03T08:29:35.794Z,62
2022-08-03T08:30:40.941Z,61.5
2022-08-03T08:31:46.066Z,61.5
2022-08-03T08:32:52.196Z,61.5
2022-08-03T08:33:58.287Z,61.5
2022-08-03T08:35:04.399Z,61.5
2022-08-03T08:36:10.515Z,61.5
2022-08-03T08:37:16.626Z,62
2022-08-03T08:38:22.737Z,61.5
2022-08-03T08:39:28.844Z,61.5
2022-08-03T08:40:34.964Z,61.5
2022-08-03T08:41:41.086Z,61.5
2022-08-03T08:42:47.214Z,61.5
2022-08-03T08:43:53.325Z,61.5
2022-08-03T08:44:59.425Z,61.5
2022-08-03T08:46:04.568Z,62
2022-08-03T08:47:10.674Z,61.5
2022-08-03T08:48:16.802Z,61.5
2022-08-03T08:49:22.889Z,61.5
2022-08-03T08:50:29.012Z,61.5
2022-08-03T08:51:35.124Z,61.5
2022-08-03T08:52:41.242Z,61.5
2022-08-03T08:53:46.388Z,61
2022-08-03T08:54:51.517Z,61.5
2022-08-03T08:55:56.635Z,61.5
2022-08-03T08:57:01.758Z,62
2022-08-03T08:58:07.881Z,62
2022-08-03T08:59:13.993Z,62.5
2022-08-03T09:00:20.115Z,62.5
2022-08-03T09:01:26.224Z,62
2022-08-03T09:02:32.332Z,62
2022-08-03T09:03:38.462Z,62
2022-08-03T09:04:44.572Z,62
2022-08-03T09:05:50.675Z,62
2022-08-03T09:06:56.791Z,62
2022-08-03T09:08:02.901Z,62
2022-08-03T09:09:09.051Z,62
2022-08-03T09:10:15.133Z,62
2022-08-03T09:11:20.261Z,62
2022-08-03T09:12:26.379Z,62
2022-08-03T09:13:32.489Z,62
2022-08-03T09:14:38.611Z,62
2022-08-03T09:15:44.722Z,61.5
2022-08-03T09:16:50.835Z,61.5
2022-08-03T09:17:56.962Z,61.5
2022-08-03T09:19:02.078Z,61.5
2022-08-03T09:20:07.221Z,61.5
2022-08-03T09:21:12.343Z,61.5
2022-08-03T09:22:17.476Z,61.5
2022-08-03T09:23:23.590Z,61.5
2022-08-03T09:24:29.699Z,61.5
2022-08-03T09:25:35.820Z,61.5
2022-08-03T09:26:41.934Z,61.5
2022-08-03T09:27:48.046Z,61.5
2022-08-03T09:28:54.155Z,61.5
2022-08-03T09:30:00.285Z,61.5
2022-08-03T09:31:06.398Z,61.5
2022-08-03T09:32:12.501Z,61
2022-08-03T09:33:18.622Z,61.5
2022-08-03T09:34:24.733Z,62
2022-08-03T09:35:30.856Z,61.5
2022-08-03T09:36:35.986Z,61.5
2022-08-03T09:37:42.090Z,61.5
2022-08-03T09:38:48.227Z,61.5
2022-08-03T09:39:54.316Z,61.5
2022-08-03T09:41:00.436Z,61.5
2022-08-03T09:42:06.548Z,62
2022-08-03T09:43:12.663Z,62.5
2022-08-03T09:44:17.794Z,62.5
2022-08-03T09:45:22.922Z,62
2022-08-03T09:46:29.039Z,62
2022-08-03T09:47:35.181Z,62
2022-08-03T09:48:41.290Z,62
2022-08-03T09:49:47.379Z,62
2022-08-03T09:50:53.499Z,62
2022-08-03T09:51:59.623Z,62
2022-08-03T09:53:05.735Z,62
2022-08-03T09:54:11.840Z,61.5
2022-08-03T09:55:17.944Z,61.5
2022-08-03T09:56:24.059Z,61.5
2022-08-03T09:57:30.183Z,61.5
2022-08-03T09:58:36.290Z,61
2022-08-03T09:59:41.430Z,61
2022-08-03T10:00:47.536Z,61
2022-08-03T10:01:53.649Z,61
2022-08-03T10:02:59.773Z,61
2022-08-03T10:04:05.879Z,61
2022-08-03T10:05:11.998Z,61
2022-08-03T10:06:18.118Z,61
2022-08-03T10:07:23.274Z,61.5
2022-08-03T10:08:28.378Z,61.5
2022-08-03T10:09:33.517Z,61.5
2022-08-03T10:10:38.639Z,61.5
2022-08-03T10:11:44.758Z,61.5
2022-08-03T10:12:49.885Z,61.5
2022-08-03T10:13:55.019Z,61.5
2022-08-03T10:15:01.143Z,61.5
2022-08-03T10:16:07.251Z,61
2022-08-03T10:17:13.366Z,61
2022-08-03T10:18:19.488Z,61
2022-08-03T10:19:24.615Z,61
2022-08-03T10:20:30.726Z,61
2022-08-03T10:21:36.843Z,61
2022-08-03T10:22:42.950Z,61
2022-08-03T10:23:49.069Z,61
2022-08-03T10:24:55.173Z,61
2022-08-03T10:26:01.285Z,61
2022-08-03T10:27:07.408Z,61
2022-08-03T10:28:13.530Z,61
2022-08-03T10:29:19.635Z,61
2022-08-03T10:30:25.741Z,61
2022-08-03T10:31:31.867Z,61
2022-08-03T10:32:37.987Z,61
2022-08-03T10:33:43.101Z,61
2022-08-03T10:34:49.215Z,61
2022-08-03T10:35:54.353Z,61
2022-08-03T10:36:59.491Z,61
2022-08-03T10:38:05.602Z,61
2022-08-03T10:39:10.735Z,61
2022-08-03T10:40:15.864Z,60.5
2022-08-03T10:41:21.988Z,60.5
2022-08-03T10:42:28.117Z,60.5
2022-08-03T10:43:34.215Z,60.5
2022-08-03T10:44:40.332Z,60.5
2022-08-03T10:45:46.432Z,60.5
2022-08-03T10:46:52.549Z,60.5
2022-08-03T10:47:58.682Z,60
2022-08-03T10:49:04.782Z,60
2022-08-03T10:50:10.886Z,60
2022-08-03T10:51:17.006Z,60.5
2022-08-03T10:52:23.121Z,60.5
2022-08-03T10:53:29.242Z,60
2022-08-03T10:54:34.381Z,60
2022-08-03T10:55:40.480Z,60
2022-08-03T10:56:46.585Z,60
2022-08-03T10:57:52.709Z,59.5
2022-08-03T10:58:58.822Z,59.5
2022-08-03T11:00:04.933Z,59.5
2022-08-03T11:01:11.046Z,59.5
2022-08-03T11:02:16.178Z,59.5
2022-08-03T11:03:21.321Z,59
2022-08-03T11:04:27.429Z,59
2022-08-03T11:05:32.560Z,59
2022-08-03T11:06:37.694Z,59
2022-08-03T11:07:43.809Z,59
2022-08-03T11:08:49.930Z,59
2022-08-03T11:09:56.031Z,59
2022-08-03T11:11:02.155Z,59
2022-08-03T11:12:08.256Z,59
2022-08-03T11:13:14.386Z,58.5
2022-08-03T11:14:20.479Z,59
2022-08-03T11:15:26.600Z,58.5
2022-08-03T11:16:32.734Z,58.5
2022-08-03T11:17:38.824Z,58.5
2022-08-03T11:18:44.942Z,59
2022-08-03T11:19:51.048Z,59
2022-08-03T11:20:56.202Z,59
2022-08-03T11:22:02.343Z,59
2022-08-03T11:23:08.424Z,59
2022-08-03T11:24:14.542Z,59
2022-08-03T11:25:20.644Z,59.5
2022-08-03T11:26:26.748Z,59.5
2022-08-03T11:27:32.880Z,59.5
2022-08-03T11:28:38.033Z,58.5
2022-08-03T11:29:43.138Z,58.5
2022-08-03T11:30:48.273Z,58.5
2022-08-03T11:31:53.411Z,58.5
2022-08-03T11:32:59.514Z,59
2022-08-03T11:34:05.624Z,58.5
2022-08-03T11:35:11.746Z,59
2022-08-03T11:36:17.861Z,58.5
2022-08-03T11:37:23.972Z,58.5
2022-08-03T11:38:30.085Z,57.5
2022-08-03T11:39:36.194Z,57.5
2022-08-03T11:40:42.318Z,57
2022-08-03T11:41:48.431Z,57
2022-08-03T11:44:00.653Z,57
2022-08-03T11:45:06.767Z,57.5
2022-08-03T11:46:11.907Z,58
2022-08-03T11:47:18.060Z,56.5
2022-08-03T11:48:24.159Z,55.5
2022-08-03T11:49:30.257Z,55.5
2022-08-03T11:50:36.347Z,56.5
2022-08-03T11:51:42.465Z,56.5
2022-08-03T11:52:48.574Z,56
2022-08-03T11:53:54.687Z,55.5
2022-08-03T11:54:59.821Z,55
2022-08-03T11:56:04.950Z,56
2022-08-03T11:57:11.066Z,56
2022-08-03T11:58:16.207Z,56
2022-08-03T11:59:21.352Z,56
2022-08-03T12:00:27.455Z,56
2022-08-03T12:01:33.571Z,57
2022-08-03T12:02:39.687Z,56
2022-08-03T12:03:45.806Z,56
2022-08-03T12:05:58.024Z,56.5
2022-08-03T12:07:04.167Z,57.5
2022-08-03T12:08:10.287Z,57
2022-08-03T12:09:16.369Z,56.5
2022-08-03T12:10:22.488Z,56.5
2022-08-03T12:11:28.597Z,56.5
2022-08-03T12:12:34.709Z,56.5
2022-08-03T12:13:39.842Z,56.5
2022-08-03T12:14:45.955Z,56.5
2022-08-03T12:15:52.065Z,56.5
2022-08-03T12:16:58.188Z,56.5
2022-08-03T12:18:04.300Z,57
2022-08-03T12:19:10.414Z,57
2022-08-03T12:20:16.527Z,57.5
2022-08-03T12:21:22.680Z,58
2022-08-03T12:22:27.787Z,56.5
2022-08-03T12:23:32.908Z,56.5
2022-08-03T12:24:39.014Z,56.5
2022-08-03T12:25:44.163Z,57.5
2022-08-03T12:26:49.281Z,57
2022-08-03T12:27:55.406Z,56.5
2022-08-03T12:29:01.507Z,56.5
2022-08-03T12:30:07.627Z,56.5
2022-08-03T12:31:13.726Z,58
2022-08-03T12:32:19.839Z,57.5
2022-08-03T12:33:25.961Z,57
2022-08-03T12:34:32.071Z,57.5
2022-08-03T12:35:38.198Z,57.5
2022-08-03T12:36:44.301Z,57.5
2022-08-03T12:37:50.428Z,58.5
2022-08-03T12:38:56.530Z,58.5
2022-08-03T12:40:02.636Z,58.5
2022-08-03T12:41:07.793Z,58.5
2022-08-03T12:42:13.885Z,59
2022-08-03T12:43:20.011Z,58.5
2022-08-03T12:44:26.110Z,59
2022-08-03T12:45:32.227Z,59.5
2022-08-03T12:46:38.345Z,60
2022-08-03T12:47:44.467Z,60.5
2022-08-03T12:48:49.592Z,61
2022-08-03T12:49:54.756Z,61
2022-08-03T12:51:00.837Z,61
2022-08-03T12:52:06.959Z,61
2022-08-03T12:53:13.072Z,61.5
2022-08-03T12:54:19.177Z,61.5
2022-08-03T12:55:25.295Z,61.5
2022-08-03T12:57:37.525Z,61
2022-08-03T12:58:43.659Z,61
2022-08-03T12:59:49.759Z,61
2022-08-03T13:00:55.865Z,61
2022-08-03T13:02:01.975Z,61
2022-08-03T13:03:08.100Z,61
2022-08-03T13:04:13.232Z,61
2022-08-03T13:05:19.346Z,61
2022-08-03T13:06:25.453Z,61.5
2022-08-03T13:07:31.569Z,61
2022-08-03T13:08:37.691Z,61
2022-08-03T13:09:43.798Z,61.5
2022-08-03T13:10:49.914Z,61.5
2022-08-03T13:11:56.018Z,61
2022-08-03T13:13:01.168Z,61
2022-08-03T13:14:06.331Z,61
2022-08-03T13:15:11.433Z,61
2022-08-03T13:16:16.555Z,61
2022-08-03T13:17:22.691Z,61
2022-08-03T13:18:28.776Z,61
2022-08-03T13:19:34.893Z,61
2022-08-03T13:20:41.009Z,61
2022-08-03T13:21:47.159Z,61
2022-08-03T13:22:53.233Z,61
2022-08-03T13:23:59.352Z,61
2022-08-03T13:25:05.459Z,61
2022-08-03T13:26:11.582Z,61
2022-08-03T13:27:17.698Z,61
2022-08-03T13:28:23.817Z,61
2022-08-03T13:29:29.912Z,61
2022-08-03T13:30:35.047Z,61
2022-08-03T13:31:41.180Z,61
2022-08-03T13:32:47.282Z,61
2022-08-03T13:33:53.381Z,61
2022-08-03T13:34:59.505Z,61
2022-08-03T13:36:05.627Z,61
2022-08-03T13:37:11.758Z,61
2022-08-03T13:38:16.871Z,61
2022-08-03T13:39:22.011Z,61
2022-08-03T13:40:27.183Z,61
2022-08-03T13:41:32.288Z,61
2022-08-03T13:42:38.396Z,61
2022-08-03T13:43:43.517Z,61
2022-08-03T13:44:48.653Z,61
2022-08-03T13:45:54.775Z,61
2022-08-03T13:47:00.876Z,61
2022-08-03T13:48:07.000Z,61
2022-08-03T13:49:13.098Z,61
2022-08-03T13:50:19.224Z,61
2022-08-03T13:51:25.331Z,60.5
2022-08-03T13:52:31.452Z,60.5
2022-08-03T13:53:37.558Z,60.5
2022-08-03T13:54:43.669Z,60.5
2022-08-03T13:55:49.788Z,60.5
2022-08-03T13:56:55.902Z,60.5
2022-08-03T13:59:08.119Z,60.5
2022-08-03T14:00:13.254Z,60.5
2022-08-03T14:01:19.367Z,60.5
2022-08-03T14:02:25.479Z,60.5
2022-08-03T14:03:31.605Z,60.5
2022-08-03T14:04:37.718Z,61
2022-08-03T14:05:43.829Z,61
2022-08-03T14:06:49.944Z,61
2022-08-03T14:07:55.072Z,61
2022-08-03T14:09:00.202Z,61
2022-08-03T14:10:05.343Z,61
2022-08-03T14:11:10.463Z,61
2022-08-03T14:12:16.585Z,61
2022-08-03T14:13:22.695Z,60.5
2022-08-03T14:14:28.808Z,60.5
2022-08-03T14:15:34.921Z,60.5
2022-08-03T14:16:41.046Z,60.5
2022-08-03T14:17:47.147Z,60.5
2022-08-03T14:18:53.260Z,60.5
2022-08-03T14:19:59.390Z,60.5
2022-08-03T14:21:05.497Z,60.5
2022-08-03T14:22:11.613Z,60.5
2022-08-03T14:23:17.717Z,60.5
2022-08-03T14:24:23.837Z,60.5
2022-08-03T14:25:28.969Z,60.5
2022-08-03T14:26:35.092Z,60.5
2022-08-03T14:27:41.217Z,60.5
2022-08-03T14:28:47.348Z,60.5
2022-08-03T14:29:53.426Z,60.5
2022-08-03T14:30:59.565Z,60.5
2022-08-03T14:32:05.651Z,60.5
2022-08-03T14:33:10.778Z,60.5
2022-08-03T14:34:15.937Z,60.5
2022-08-03T14:35:22.034Z,60.5
2022-08-03T14:36:28.152Z,60.5
2022-08-03T14:37:34.262Z,60
2022-08-03T14:38:40.394Z,60
2022-08-03T14:39:46.478Z,60
2022-08-03T14:40:52.619Z,60
2022-08-03T14:41:58.708Z,60
2022-08-03T14:43:04.844Z,60
2022-08-03T14:44:10.942Z,60
2022-08-03T14:45:17.054Z,60
2022-08-03T14:46:23.164Z,60
2022-08-03T14:47:29.291Z,60
2022-08-03T14:48:34.414Z,60
2022-08-03T14:49:40.525Z,60
2022-08-03T14:50:46.639Z,60
2022-08-03T14:51:52.756Z,60
2022-08-03T14:52:58.865Z,60
2022-08-03T14:54:04.993Z,60
2022-08-03T14:55:11.092Z,60
2022-08-03T14:56:16.242Z,60
2022-08-03T14:57:21.362Z,60
2022-08-03T14:58:26.491Z,60
2022-08-03T14:59:31.644Z,60
2022-08-03T15:00:37.737Z,60
2022-08-03T15:01:43.853Z,60
2022-08-03T15:02:49.968Z,60
2022-08-03T15:03:56.082Z,60
2022-08-03T15:05:02.200Z,60
2022-08-03T15:06:08.329Z,60
2022-08-03T15:07:14.427Z,60
2022-08-03T15:08:20.536Z,60
2022-08-03T15:09:26.646Z,60
2022-08-03T15:10:32.763Z,60
2022-08-03T15:11:38.876Z,60
2022-08-03T15:12:44.999Z,60
2022-08-03T15:13:50.118Z,60
2022-08-03T15:14:56.235Z,60
2022-08-03T15:16:02.352Z,60
2022-08-03T15:17:08.465Z,60